Time;durP1;ratioP1;P1;durP2;ratioP2;P2;SDS_P1;SDS_P2;PMS_P1;PMS_P2;Temp;Humidity;BMP_temperature;BMP_pressure;BME280_temperature;BME280_humidity;BME280_pressure;Samples;Min_cycle;Max_cycle;Signal;HPM_P1;HPM_P2
2021/09/30 00:00:51;;;;;;;1.83;1.50;;;;;;;21.76;83.74;98442.72;5039683;28;20734;-65
2021/09/30 00:03:18;;;;;;;2.23;1.53;;;;;;;21.76;83.75;98435.03;5042831;28;20204;-65
2021/09/30 00:05:44;;;;;;;2.30;1.33;;;;;;;21.76;83.41;98442.72;5043362;28;20651;-66
2021/09/30 00:08:11;;;;;;;1.87;1.47;;;;;;;21.76;83.65;98457.22;5040459;28;20256;-65
2021/09/30 00:10:40;;;;;;;1.50;1.40;;;;;;;21.76;83.52;98457.22;5045675;28;20236;-65
2021/09/30 00:13:23;;;;;;;2.50;1.40;;;;;;;21.76;83.57;98446.97;5043551;28;20686;-65
2021/09/30 00:34:56;;;;;;;1.63;1.30;;;;;;;21.76;83.59;98460.63;5038859;28;20240;-65
2021/09/30 00:48:17;;;;;;;1.40;1.17;;;;;;;21.76;83.39;98460.63;5043028;28;20657;-65
2021/09/30 00:51:03;;;;;;;1.43;1.30;;;;;;;21.62;83.52;98438.69;5028542;28;20722;-65
2021/09/30 01:18:15;;;;;;;1.30;1.20;;;;;;;21.76;83.76;98449.53;5042619;28;20243;-65
2021/09/30 01:26:15;;;;;;;1.33;1.23;;;;;;;21.47;83.60;98430.34;5046901;28;20279;-65
2021/09/30 01:58:45;;;;;;;1.20;1.10;;;;;;;21.72;84.09;98507.34;5040855;28;20312;-65
2021/09/30 02:23:56;;;;;;;2.13;1.30;;;;;;;21.73;84.04;98518.47;5015745;28;20636;-65
2021/09/30 02:35:13;;;;;;;1.00;1.00;;;;;;;21.60;83.90;98509.34;5030313;28;20409;-65
2021/09/30 02:59:39;;;;;;;1.00;1.00;;;;;;;21.65;84.22;98546.25;5020977;28;20285;-65
2021/09/30 03:02:05;;;;;;;1.33;1.00;;;;;;;21.71;84.04;98560.19;5021255;28;20304;-66
2021/09/30 03:04:32;;;;;;;1.10;1.10;;;;;;;21.70;84.20;98555.88;5046020;28;20200;-67
2021/09/30 03:06:59;;;;;;;1.20;1.10;;;;;;;21.65;84.17;98549.69;5028336;28;20290;-66
2021/09/30 03:09:37;;;;;;;1.10;1.10;;;;;;;21.70;84.45;98568.69;5025294;28;20275;-66
2021/09/30 03:12:07;;;;;;;2.87;1.10;;;;;;;21.70;84.29;98562.69;5028153;28;20696;-65
2021/09/30 03:14:40;;;;;;;1.03;1.03;;;;;;;20.83;84.30;98416.31;5010915;28;20200;-66
2021/09/30 03:17:07;;;;;;;1.00;1.00;;;;;;;21.64;84.74;98560.72;5028124;28;20294;-66
2021/09/30 03:19:50;;;;;;;1.20;1.10;;;;;;;21.69;84.32;98582.28;5025880;28;20236;-65
2021/09/30 03:22:17;;;;;;;1.20;1.10;;;;;;;21.70;84.67;98585.69;5010473;28;20235;-66
2021/09/30 03:24:46;;;;;;;1.10;1.07;;;;;;;21.65;84.54;98571.84;5027875;28;20296;-65
2021/09/30 03:27:12;;;;;;;1.10;1.00;;;;;;;21.70;84.42;98583.16;5004259;28;20708;-66
2021/09/30 03:29:39;;;;;;;1.13;1.03;;;;;;;21.69;84.38;98579.72;5042122;28;20267;-65
2021/09/30 03:32:06;;;;;;;1.20;1.10;;;;;;;21.03;84.31;98464.16;5027383;28;20292;-66
2021/09/30 03:34:33;;;;;;;1.17;1.17;;;;;;;21.70;84.20;98584.03;5022804;28;20237;-66
2021/09/30 03:37:03;;;;;;;1.00;1.00;;;;;;;21.50;84.47;98541.31;5034560;28;20245;-66
2021/09/30 03:39:29;;;;;;;1.23;1.13;;;;;;;21.63;84.44;98566.66;5037958;28;20243;-65
2021/09/30 03:41:57;;;;;;;1.17;1.13;;;;;;;21.66;84.37;98569.34;5044732;28;20318;-66
2021/09/30 03:44:23;;;;;;;0.90;0.90;;;;;;;21.73;84.23;98577.31;5045151;28;20292;-66
2021/09/30 03:46:53;;;;;;;1.40;1.30;;;;;;;21.48;84.16;98542.94;5040714;28;20694;-65
2021/09/30 03:49:26;;;;;;;0.93;0.93;;;;;;;21.24;84.13;98492.34;5067274;22;20705;-72
2021/09/30 03:52:08;;;;;;;1.93;1.10;;;;;;;21.16;84.21;98484.34;5028629;28;20708;-72
2021/09/30 03:57:08;;;;;;;1.43;1.20;;;;;;;21.64;84.41;98559.84;5015512;28;20292;-72
2021/09/30 03:59:35;;;;;;;1.37;1.10;;;;;;;20.92;84.07;98444.84;5021659;28;20328;-72
2021/09/30 04:02:02;;;;;;;1.07;1.07;;;;;;;20.82;84.19;98421.34;5024477;28;20762;-72
2021/09/30 04:04:34;;;;;;;1.43;1.20;;;;;;;21.47;83.98;98533.50;5007124;28;20279;-72
2021/09/30 04:07:05;;;;;;;1.13;1.13;;;;;;;21.64;84.09;98570.97;5006160;28;20222;-73
2021/09/30 04:09:32;;;;;;;1.00;1.00;;;;;;;21.60;84.07;98560.53;5007845;28;20678;-72
2021/09/30 04:12:00;;;;;;;1.00;1.00;;;;;;;20.80;84.49;98436.63;5018686;28;20204;-71
2021/09/30 04:14:27;;;;;;;1.10;1.10;;;;;;;21.41;84.09;98532.38;5018238;28;20240;-72
2021/09/30 04:16:54;;;;;;;1.23;1.10;;;;;;;21.56;84.21;98562.06;5026236;28;20201;-72
2021/09/30 04:19:21;;;;;;;1.13;1.00;;;;;;;21.73;84.15;98592.66;5012297;28;20218;-71
2021/09/30 04:21:48;;;;;;;1.00;1.00;;;;;;;21.59;84.14;98569.00;5029409;28;20209;-71
2021/09/30 04:24:15;;;;;;;1.17;1.10;;;;;;;21.29;84.01;98531.81;5024907;28;20232;-72
2021/09/30 04:26:42;;;;;;;1.00;1.00;;;;;;;21.60;84.13;98579.31;5014760;28;20304;-71
2021/09/30 04:29:11;;;;;;;1.70;1.10;;;;;;;21.53;84.32;98561.91;5005835;28;20240;-71
2021/09/30 04:31:38;;;;;;;1.20;1.10;;;;;;;21.71;83.90;98603.69;5026840;28;20316;-71
2021/09/30 04:34:05;;;;;;;1.00;1.00;;;;;;;21.15;83.96;98508.16;5030815;28;20225;-73
2021/09/30 04:36:32;;;;;;;1.20;1.10;;;;;;;21.47;84.06;98566.75;5025794;28;20283;-71
2021/09/30 04:38:59;;;;;;;0.90;0.90;;;;;;;20.65;84.06;98430.78;5002432;28;20241;-70
2021/09/30 04:41:25;;;;;;;1.00;1.00;;;;;;;21.59;84.12;98598.00;5031399;28;20193;-70
2021/09/30 04:43:52;;;;;;;1.00;1.00;;;;;;;21.73;84.03;98631.03;5031752;28;20279;-72
2021/09/30 04:46:20;;;;;;;1.10;1.10;;;;;;;21.71;84.23;98624.16;5047571;28;20596;-72
2021/09/30 04:48:48;;;;;;;1.10;1.00;;;;;;;21.59;84.34;98607.38;5030627;28;20641;-71
2021/09/30 04:51:15;;;;;;;0.90;0.90;;;;;;;21.43;84.61;98581.88;5012927;28;20279;-73
2021/09/30 04:53:41;;;;;;;1.33;1.20;;;;;;;21.67;84.27;98622.28;5009744;28;20204;-71
2021/09/30 04:56:08;;;;;;;1.10;1.10;;;;;;;21.71;84.22;98630.97;5043252;28;20254;-71
2021/09/30 04:58:35;;;;;;;1.20;1.10;;;;;;;21.71;83.88;98636.09;5010700;28;20235;-72
2021/09/30 05:01:02;;;;;;;1.10;1.07;;;;;;;21.71;83.06;98628.41;5038014;28;20231;-72
2021/09/30 05:03:28;;;;;;;1.47;1.07;;;;;;;21.71;83.37;98636.09;5047188;28;20204;-73
2021/09/30 05:05:55;;;;;;;1.27;1.17;;;;;;;21.52;83.92;98601.09;5025494;28;20201;-72
2021/09/30 05:08:22;;;;;;;1.30;1.20;;;;;;;21.51;83.34;98601.03;5017815;28;20218;-72
2021/09/30 05:10:50;;;;;;;1.00;1.00;;;;;;;21.51;83.76;98601.91;5022920;28;20700;-71
2021/09/30 05:13:25;;;;;;;1.20;1.10;;;;;;;21.29;83.86;98571.00;5008059;28;20263;-71
2021/09/30 05:15:51;;;;;;;1.30;1.20;;;;;;;21.69;83.83;98633.47;5001008;28;20584;-73
2021/09/30 05:18:18;;;;;;;1.23;1.10;;;;;;;21.46;83.76;98597.38;5035145;28;20218;-72
2021/09/30 05:20:45;;;;;;;2.73;1.20;;;;;;;21.41;84.04;98584.38;5036945;28;20233;-72
2021/09/30 05:23:11;;;;;;;1.00;1.00;;;;;;;21.47;83.80;98592.31;5013857;28;20193;-71
2021/09/30 05:25:38;;;;;;;0.90;0.90;;;;;;;21.46;84.10;98577.78;5011565;28;20291;-73
2021/09/30 05:28:05;;;;;;;1.00;1.00;;;;;;;21.73;83.92;98635.34;5021790;28;20253;-71
2021/09/30 05:30:31;;;;;;;0.90;0.90;;;;;;;21.71;84.05;98631.81;5039299;28;20295;-71
2021/09/30 05:32:58;;;;;;;1.37;1.10;;;;;;;21.74;83.91;98636.25;5035653;28;20206;-72
2021/09/30 05:35:24;;;;;;;0.90;0.90;;;;;;;21.68;83.91;98636.81;5036308;28;20276;-71
2021/09/30 05:37:51;;;;;;;1.00;1.00;;;;;;;19.91;84.36;98339.50;5018898;28;20276;-72
2021/09/30 05:40:19;;;;;;;1.40;0.90;;;;;;;21.22;83.78;98552.75;5017987;28;20236;-72
2021/09/30 05:42:45;;;;;;;1.00;1.00;;;;;;;21.74;83.85;98643.94;5010345;28;20231;-72
2021/09/30 05:45:13;;;;;;;1.30;1.20;;;;;;;21.65;78.05;98634.09;5042512;28;20255;-72
2021/09/30 05:47:40;;;;;;;2.33;1.20;;;;;;;21.65;74.85;98634.09;5013834;28;20265;-72
2021/09/30 05:50:07;;;;;;;2.57;1.30;;;;;;;21.63;75.22;98638.28;5028577;28;20298;-71
2021/09/30 05:52:34;;;;;;;1.47;1.20;;;;;;;21.70;75.54;98648.00;5012952;28;20720;-72
2021/09/30 05:55:01;;;;;;;2.93;1.43;;;;;;;21.71;76.44;98657.41;5027761;28;20304;-72
2021/09/30 05:57:27;;;;;;;2.77;1.30;;;;;;;21.69;76.26;98653.03;5014915;28;20304;-71
2021/09/30 05:59:55;;;;;;;1.20;1.10;;;;;;;21.63;77.80;98637.41;5025898;28;20205;-71
2021/09/30 06:10:43;;;;;;;3.27;1.20;;;;;;;21.65;79.25;98643.47;5037232;28;20620;-72
2021/09/30 06:13:16;;;;;;;1.20;1.10;;;;;;;21.71;79.26;98659.13;5032057;28;20298;-71
2021/09/30 06:15:44;;;;;;;1.83;1.27;;;;;;;21.69;79.42;98656.50;5034194;28;20231;-72
2021/09/30 06:18:11;;;;;;;1.43;1.30;;;;;;;21.70;79.68;98645.44;5048815;28;20217;-72
2021/09/30 06:20:38;;;;;;;3.57;1.23;;;;;;;21.70;79.88;98655.66;5031234;28;20575;-74
2021/09/30 06:23:04;;;;;;;2.50;1.33;;;;;;;21.40;79.96;98612.44;5045782;28;20662;-72
2021/09/30 06:25:31;;;;;;;1.20;1.10;;;;;;;21.70;80.36;98660.78;5025428;28;20225;-71
2021/09/30 06:27:58;;;;;;;1.87;1.40;;;;;;;21.70;80.53;98670.13;5027644;28;20251;-73
2021/09/30 06:30:29;;;;;;;1.00;1.00;;;;;;;21.55;80.82;98638.72;5026090;28;20708;-72
2021/09/30 06:33:00;;;;;;;1.43;1.13;;;;;;;21.49;80.54;98631.66;5031230;28;20666;-71
2021/09/30 06:35:27;;;;;;;1.73;1.30;;;;;;;21.62;81.04;98659.53;5010097;28;20206;-71
2021/09/30 06:37:54;;;;;;;2.77;1.03;;;;;;;21.70;80.93;98675.25;5013375;28;20278;-72
2021/09/30 06:40:20;;;;;;;1.10;1.00;;;;;;;21.34;80.92;98614.69;5036038;28;20259;-73
2021/09/30 06:42:47;;;;;;;1.53;1.13;;;;;;;21.42;81.07;98619.41;5014843;28;20694;-73
2021/09/30 06:45:14;;;;;;;1.77;1.30;;;;;;;21.39;81.06;98621.81;5021953;28;20217;-71
2021/09/30 06:47:40;;;;;;;1.40;1.30;;;;;;;21.40;81.05;98626.09;5007870;28;20232;-71
2021/09/30 06:50:11;;;;;;;9.60;2.10;;;;;;;21.58;80.19;98652.53;5006041;28;20891;-71
2021/09/30 06:52:39;;;;;;;5.40;1.63;;;;;;;21.29;78.73;98600.84;5013070;28;20228;-73
2021/09/30 06:55:07;;;;;;;4.10;1.57;;;;;;;21.38;77.17;98616.63;5021961;28;20651;-73
2021/09/30 06:57:33;;;;;;;3.40;1.40;;;;;;;21.73;77.78;98677.09;5009529;28;20251;-72
2021/09/30 07:00:05;;;;;;;4.93;1.40;;;;;;;21.66;78.44;98666.59;5047663;28;20244;-72
2021/09/30 07:02:36;;;;;;;4.93;1.37;;;;;;;21.66;79.09;98671.69;5019210;28;20258;-74
2021/09/30 07:05:04;;;;;;;3.93;1.30;;;;;;;21.76;79.65;98685.81;5029919;28;20702;-72
2021/09/30 07:07:30;;;;;;;3.93;1.40;;;;;;;21.68;79.97;98664.09;5028365;28;20204;-73
2021/09/30 07:09:57;;;;;;;2.80;1.27;;;;;;;21.68;80.33;98672.63;5007249;28;20209;-72
2021/09/30 07:12:23;;;;;;;2.43;1.40;;;;;;;21.65;80.27;98664.81;5032682;28;20249;-71
2021/09/30 07:14:50;;;;;;;2.87;1.50;;;;;;;21.65;80.04;98672.47;5038111;28;20201;-71
2021/09/30 07:17:17;;;;;;;2.10;1.27;;;;;;;21.46;80.07;98633.19;5041355;28;20236;-71
2021/09/30 07:19:43;;;;;;;1.97;1.40;;;;;;;21.68;80.39;98671.78;5017340;28;20201;-72
2021/09/30 07:22:10;;;;;;;2.27;1.40;;;;;;;21.63;80.35;98660.44;5018351;28;20292;-72
2021/09/30 07:24:37;;;;;;;1.63;1.40;;;;;;;21.41;80.22;98622.72;5003761;28;20247;-71
2021/09/30 07:27:07;;;;;;;2.43;1.40;;;;;;;21.54;80.34;98648.09;5025067;28;20655;-72
2021/09/30 07:29:33;;;;;;;2.80;1.17;;;;;;;21.64;80.83;98659.63;5006666;28;20214;-72
2021/09/30 07:32:01;;;;;;;5.43;1.37;;;;;;;21.65;80.79;98674.19;5009201;28;20240;-71
2021/09/30 07:34:27;;;;;;;2.43;1.30;;;;;;;21.45;81.02;98628.88;5030480;28;20197;-72
2021/09/30 07:36:54;;;;;;;3.13;1.30;;;;;;;21.25;81.46;98599.81;5034888;28;20227;-72
2021/09/30 07:39:21;;;;;;;2.60;1.20;;;;;;;21.66;81.09;98673.38;5046964;28;20224;-72
2021/09/30 07:41:48;;;;;;;1.60;1.13;;;;;;;21.41;80.98;98632.97;5023951;28;20200;-72
2021/09/30 07:44:15;;;;;;;1.30;1.20;;;;;;;21.53;80.83;98650.59;5006116;28;20231;-73
2021/09/30 07:46:42;;;;;;;3.97;1.43;;;;;;;21.42;80.71;98637.28;5026499;28;20655;-72
2021/09/30 07:49:09;;;;;;;1.73;1.37;;;;;;;21.69;80.83;98683.75;5028295;28;20243;-72
2021/09/30 07:51:36;;;;;;;2.13;1.13;;;;;;;21.43;80.76;98633.03;5014041;28;20255;-72
2021/09/30 07:54:03;;;;;;;1.50;1.17;;;;;;;21.56;80.55;98672.06;5026042;28;20300;-71
2021/09/30 07:56:30;;;;;;;2.93;1.30;;;;;;;21.66;81.21;98689.59;5040601;28;20225;-72
2021/09/30 07:58:57;;;;;;;1.47;1.37;;;;;;;21.60;81.11;98679.09;5045092;28;20240;-71
2021/09/30 08:01:23;;;;;;;1.40;1.30;;;;;;;21.79;81.41;98708.13;5043315;28;20259;-70
2021/09/30 08:03:50;;;;;;;2.10;1.13;;;;;;;21.79;81.50;98711.53;5040311;28;20198;-73
2021/09/30 08:06:17;;;;;;;1.20;1.10;;;;;;;21.53;81.43;98664.22;5043979;28;20338;-71
2021/09/30 08:08:53;;;;;;;1.70;1.20;;;;;;;21.50;81.61;98655.56;5013783;28;20220;-72
2021/09/30 08:11:20;;;;;;;1.80;1.20;;;;;;;21.54;81.20;98668.56;5014783;28;20217;-71
2021/09/30 08:13:46;;;;;;;2.83;1.30;;;;;;;21.51;81.41;98667.53;5018568;28;20299;-73
2021/09/30 08:16:14;;;;;;;1.43;1.10;;;;;;;21.57;81.45;98672.94;5026002;28;20304;-71
2021/09/30 08:18:41;;;;;;;4.60;1.50;;;;;;;21.42;81.58;98646.63;5029248;28;20220;-72
2021/09/30 08:21:12;;;;;;;1.40;1.30;;;;;;;21.63;82.01;98684.34;5012392;28;20289;-72
2021/09/30 08:23:43;;;;;;;1.90;1.40;;;;;;;21.63;81.49;98676.66;5003297;28;20260;-73
2021/09/30 08:26:10;;;;;;;2.40;1.47;;;;;;;21.55;81.46;98665.19;5022082;28;20864;-72
2021/09/30 08:28:37;;;;;;;1.40;1.30;;;;;;;21.33;81.30;98630.84;5021534;28;20252;-72
2021/09/30 08:31:05;;;;;;;2.00;1.50;;;;;;;21.35;81.17;98627.56;5033761;28;20304;-72
2021/09/30 08:33:32;;;;;;;2.07;1.50;;;;;;;20.87;81.59;98545.94;5005758;28;20667;-73
2021/09/30 08:35:59;;;;;;;1.73;1.13;;;;;;;21.53;81.63;98660.81;5020126;28;20202;-71
2021/09/30 08:38:26;;;;;;;1.70;1.37;;;;;;;21.44;81.55;98650.16;5009453;28;20221;-73
2021/09/30 08:40:53;;;;;;;1.40;1.30;;;;;;;21.79;82.23;98708.13;5026475;28;20742;-71
2021/09/30 08:43:19;;;;;;;3.37;1.63;;;;;;;21.61;81.82;98669.72;5022098;28;20263;-72
2021/09/30 08:45:46;;;;;;;2.87;1.57;;;;;;;21.43;81.77;98649.25;5013121;28;20293;-71
2021/09/30 08:48:12;;;;;;;1.80;1.43;;;;;;;21.73;82.30;98697.56;4986562;28;20321;-71
2021/09/30 08:50:40;;;;;;;1.30;1.20;;;;;;;21.66;81.95;98683.59;5018703;28;20254;-73
2021/09/30 08:53:08;;;;;;;1.80;1.40;;;;;;;21.45;82.06;98646.78;4981984;28;20247;-72
2021/09/30 08:55:35;;;;;;;1.77;1.20;;;;;;;21.60;82.04;98671.41;5007958;28;20305;-74
2021/09/30 08:58:04;;;;;;;1.50;1.40;;;;;;;21.54;82.11;98660.91;5026134;28;20972;-74
2021/09/30 09:00:31;;;;;;;3.77;1.70;;;;;;;21.73;81.83;98689.09;5028152;28;20619;-72
2021/09/30 09:02:58;;;;;;;1.77;1.37;;;;;;;21.61;81.85;98673.16;5041688;28;20208;-72
2021/09/30 09:05:25;;;;;;;3.30;1.50;;;;;;;20.93;81.57;98553.06;5007181;28;20887;-72
2021/09/30 09:08:02;;;;;;;1.80;1.53;;;;;;;21.46;81.87;98635.75;4992281;28;20255;-73
2021/09/30 09:10:34;;;;;;;1.93;1.60;;;;;;;21.48;81.62;98644.38;5022156;28;20519;-72
2021/09/30 09:13:14;;;;;;;1.70;1.20;;;;;;;21.78;81.96;98699.56;5008001;28;20209;-71
2021/09/30 09:15:41;;;;;;;1.63;1.53;;;;;;;21.78;82.06;98696.13;5015270;28;20251;-73
2021/09/30 09:18:43;;;;;;;2.97;1.57;;;;;;;21.77;82.19;98691.81;5045276;28;20252;-74
2021/09/30 09:21:11;;;;;;;2.80;1.50;;;;;;;21.71;82.02;98683.00;5034342;28;20443;-72
2021/09/30 09:24:02;;;;;;;1.70;1.60;;;;;;;21.71;82.19;98685.56;5040794;28;20232;-71
2021/09/30 09:26:32;;;;;;;1.57;1.43;;;;;;;21.76;82.07;98682.41;5011348;28;20666;-72
2021/09/30 09:29:13;;;;;;;1.90;1.40;;;;;;;21.77;82.26;98695.25;5023392;28;20312;-71
2021/09/30 09:31:41;;;;;;;1.87;1.50;;;;;;;21.54;82.24;98647.22;5022615;28;20304;-69
2021/09/30 09:34:19;;;;;;;4.00;1.73;;;;;;;21.64;82.16;98668.19;5021695;28;20201;-72
2021/09/30 09:36:50;;;;;;;1.80;1.50;;;;;;;21.65;82.06;98675.03;5026646;28;20254;-71
2021/09/30 09:39:30;;;;;;;5.33;1.50;;;;;;;21.68;82.28;98675.19;5048359;28;20247;-71
2021/09/30 09:42:11;;;;;;;3.10;1.40;;;;;;;21.78;82.09;98686.78;5030705;28;20693;-72
2021/09/30 09:44:58;;;;;;;1.67;1.43;;;;;;;21.47;82.30;98637.50;5045083;28;20201;-73
2021/09/30 09:47:29;;;;;;;2.20;1.70;;;;;;;21.79;82.05;98692.78;5014656;28;20246;-72
2021/09/30 09:50:15;;;;;;;2.20;1.77;;;;;;;21.79;81.91;98695.34;5032965;28;20780;-72
2021/09/30 09:52:50;;;;;;;2.40;2.00;;;;;;;21.45;82.03;98642.56;5046939;28;20899;-72
2021/09/30 09:55:38;;;;;;;2.90;1.60;;;;;;;21.79;82.01;98690.22;5031329;28;20236;-72
2021/09/30 09:58:12;;;;;;;1.83;1.60;;;;;;;21.69;82.09;98673.50;5028453;28;20225;-73
2021/09/30 10:00:56;;;;;;;1.80;1.70;;;;;;;21.78;82.19;98689.31;5000349;28;20284;-72
2021/09/30 10:03:32;;;;;;;3.47;1.67;;;;;;;21.78;82.38;98688.44;5017206;28;20215;-74
2021/09/30 10:06:04;;;;;;;2.17;1.60;;;;;;;21.76;82.17;98678.13;5046617;28;20682;-71
2021/09/30 10:08:32;;;;;;;2.10;1.87;;;;;;;21.41;82.29;98625.28;5045375;28;20253;-71
2021/09/30 10:10:59;;;;;;;3.70;2.20;;;;;;;21.50;82.02;98633.41;5027291;28;20262;-72
2021/09/30 10:13:27;;;;;;;5.23;2.13;;;;;;;21.78;82.23;98680.75;5011539;28;20193;-73
2021/09/30 10:15:55;;;;;;;3.03;2.30;;;;;;;21.76;82.38;98674.72;5037437;28;20198;-72
2021/09/30 10:18:22;;;;;;;4.47;2.43;;;;;;;21.68;82.22;98661.53;5012926;28;20247;-73
2021/09/30 10:20:53;;;;;;;3.13;2.20;;;;;;;21.78;82.31;98673.09;5036067;28;20205;-71
2021/09/30 10:23:24;;;;;;;2.37;2.10;;;;;;;21.72;82.36;98658.31;5022253;28;20229;-72
2021/09/30 10:25:52;;;;;;;2.37;2.10;;;;;;;21.80;82.36;98666.38;5007669;28;20270;-73
2021/09/30 10:28:19;;;;;;;3.23;2.30;;;;;;;21.71;82.25;98657.41;5003554;28;20225;-72
2021/09/30 10:30:49;;;;;;;3.17;2.20;;;;;;;21.79;82.22;98656.94;5007724;28;20196;-72
2021/09/30 10:33:23;;;;;;;2.67;2.10;;;;;;;21.80;82.12;98656.13;5026042;28;20225;-72
2021/09/30 10:35:53;;;;;;;2.77;2.30;;;;;;;21.58;81.90;98623.53;5024948;28;20204;-73
2021/09/30 10:38:24;;;;;;;3.73;2.30;;;;;;;21.80;82.15;98657.03;5027041;28;20280;-71
2021/09/30 10:41:15;;;;;;;6.07;2.13;;;;;;;21.79;82.32;98652.69;5031466;28;20233;-71
2021/09/30 10:43:44;;;;;;;4.80;2.23;;;;;;;21.65;82.30;98628.13;5045515;28;20280;-71
2021/09/30 10:46:25;;;;;;;3.87;2.30;;;;;;;21.79;82.22;98647.56;4991624;28;20297;-70
2021/09/30 10:48:53;;;;;;;4.50;2.30;;;;;;;21.74;82.21;98641.38;5039947;28;20232;-73
2021/09/30 10:51:22;;;;;;;3.03;2.10;;;;;;;21.78;75.13;98639.81;5022883;28;20217;-73
2021/09/30 10:53:49;;;;;;;3.80;1.93;;;;;;;21.77;65.98;98645.75;5043291;28;20209;-72
2021/09/30 10:56:31;;;;;;;5.57;1.93;;;;;;;21.73;62.89;98645.59;5030607;28;20197;-72
2021/09/30 10:59:06;;;;;;;6.33;1.70;;;;;;;20.83;60.70;98508.28;5026624;28;20263;-71
2021/09/30 11:01:48;;;;;;;13.53;2.20;;;;;;;21.69;57.64;98643.69;5043292;28;20690;-73
2021/09/30 11:04:15;;;;;;;2.23;1.73;;;;;;;21.67;56.68;98631.63;5046285;28;20287;-72
2021/09/30 11:06:42;;;;;;;2.90;1.57;;;;;;;20.96;56.56;98514.91;5046817;28;20576;-72
2021/09/30 11:09:16;;;;;;;4.90;1.70;;;;;;;21.64;57.83;98629.81;4995146;28;20221;-71
2021/09/30 11:11:50;;;;;;;2.43;1.50;;;;;;;21.53;59.55;98604.53;5022029;28;20225;-71
2021/09/30 11:14:23;;;;;;;2.70;1.33;;;;;;;21.55;61.22;98605.47;5028071;28;20224;-71
2021/09/30 11:16:52;;;;;;;6.03;1.87;;;;;;;21.49;62.29;98598.41;5013820;28;20773;-72
2021/09/30 11:19:33;;;;;;;3.27;1.77;;;;;;;21.63;63.19;98617.81;5010909;28;20223;-72
2021/09/30 11:22:02;;;;;;;8.10;1.80;;;;;;;21.64;64.37;98623.81;5025314;28;20276;-73
2021/09/30 11:24:33;;;;;;;7.03;1.77;;;;;;;21.10;65.13;98531.75;5027552;28;20901;-72
2021/09/30 11:27:05;;;;;;;2.33;1.40;;;;;;;21.43;65.83;98585.31;5028845;28;20425;-72
2021/09/30 11:29:31;;;;;;;4.77;1.80;;;;;;;21.56;66.62;98604.69;5014567;28;20679;-70
2021/09/30 11:31:58;;;;;;;3.93;1.90;;;;;;;21.55;67.29;98592.69;5028941;28;20205;-73
2021/09/30 11:34:32;;;;;;;4.27;2.00;;;;;;;21.37;67.46;98550.91;5031333;28;20192;-73
2021/09/30 11:37:20;;;;;;;3.03;1.73;;;;;;;21.45;68.22;98565.81;5008717;28;20243;-72
2021/09/30 11:39:50;;;;;;;3.00;1.97;;;;;;;21.16;68.53;98509.00;5013805;28;20284;-73
2021/09/30 11:42:21;;;;;;;3.00;1.83;;;;;;;21.52;69.35;98572.06;5030009;28;20668;-72
2021/09/30 11:45:01;;;;;;;1.83;1.50;;;;;;;21.65;69.58;98593.16;5026678;28;20233;-72
2021/09/30 11:47:29;;;;;;;1.67;1.57;;;;;;;21.60;69.92;98584.44;5048539;28;20192;-73
2021/09/30 11:49:56;;;;;;;2.77;1.70;;;;;;;21.48;70.29;98554.84;5032868;28;20659;-73
2021/09/30 11:52:23;;;;;;;2.17;1.70;;;;;;;21.65;71.18;98584.63;5027982;28;20209;-71
2021/09/30 11:54:49;;;;;;;2.47;1.70;;;;;;;21.26;70.73;98511.22;5046955;28;20193;-73
2021/09/30 11:57:26;;;;;;;2.97;1.60;;;;;;;21.48;70.99;98532.72;5018499;28;20862;-72
2021/09/30 12:00:08;;;;;;;2.63;1.50;;;;;;;21.56;71.13;98559.50;5009831;28;20201;-74
2021/09/30 12:02:34;;;;;;;4.03;1.90;;;;;;;21.65;71.65;98570.16;5012778;28;20686;-72
2021/09/30 12:05:01;;;;;;;2.87;1.83;;;;;;;21.54;71.78;98547.44;5029779;28;20659;-72
2021/09/30 12:07:30;;;;;;;4.63;1.90;;;;;;;21.66;71.78;98566.81;5031668;28;20284;-71
2021/09/30 12:09:58;;;;;;;2.30;1.60;;;;;;;21.50;72.14;98535.34;5019051;28;20224;-73
2021/09/30 12:12:28;;;;;;;2.80;1.63;;;;;;;21.54;72.63;98543.22;5005131;28;20614;-72
2021/09/30 12:14:57;;;;;;;3.93;2.23;;;;;;;21.45;72.68;98530.03;5028348;28;20464;-72
2021/09/30 12:17:28;;;;;;;2.27;1.53;;;;;;;21.46;73.02;98526.66;5030494;28;20197;-72
2021/09/30 12:19:54;;;;;;;2.00;1.50;;;;;;;21.67;73.26;98560.88;5017730;28;20208;-72
2021/09/30 12:22:23;;;;;;;1.40;1.30;;;;;;;21.64;73.50;98544.50;5025019;28;20657;-73
2021/09/30 12:25:00;;;;;;;2.00;1.73;;;;;;;21.59;73.50;98544.28;5021602;28;20201;-72
2021/09/30 12:27:32;;;;;;;2.37;1.50;;;;;;;21.68;73.56;98557.50;5024840;28;20636;-72
2021/09/30 12:30:08;;;;;;;4.40;1.60;;;;;;;21.59;73.87;98538.31;4991785;28;20231;-74
2021/09/30 12:32:36;;;;;;;2.10;1.73;;;;;;;21.51;73.83;98512.41;5032459;28;20216;-73
2021/09/30 12:35:05;;;;;;;2.03;1.30;;;;;;;21.69;74.18;98550.69;5023576;28;20243;-73
2021/09/30 12:37:39;;;;;;;1.87;1.30;;;;;;;21.60;74.06;98524.72;5028916;28;20255;-72
2021/09/30 12:40:11;;;;;;;1.70;1.60;;;;;;;21.69;74.31;98540.47;5005754;28;20209;-72
2021/09/30 12:42:37;;;;;;;1.50;1.40;;;;;;;21.62;74.41;98528.22;5028922;28;20224;-72
2021/09/30 12:45:05;;;;;;;2.27;1.50;;;;;;;21.57;74.44;98510.09;5006967;28;20202;-72
2021/09/30 12:47:40;;;;;;;4.57;1.67;;;;;;;21.64;74.63;98524.03;5029269;28;20276;-72
2021/09/30 12:50:12;;;;;;;3.10;1.60;;;;;;;21.66;74.75;98528.41;5023097;28;20808;-72
2021/09/30 12:52:39;;;;;;;2.90;1.50;;;;;;;21.61;74.74;98509.44;5025904;28;20292;-72
2021/09/30 12:55:15;;;;;;;2.73;1.40;;;;;;;21.71;74.94;98526.06;5047384;28;20220;-76
2021/09/30 12:57:41;;;;;;;3.50;1.50;;;;;;;21.62;74.95;98513.72;5042221;28;20252;-76
2021/09/30 13:00:12;;;;;;;1.87;1.50;;;;;;;21.48;75.07;98484.13;5031523;28;20232;-77
2021/09/30 13:02:39;;;;;;;1.73;1.53;;;;;;;21.37;75.08;98459.75;5019948;28;20204;-77
2021/09/30 13:05:07;;;;;;;2.00;1.50;;;;;;;21.52;75.37;98472.31;5022541;28;20197;-74
2021/09/30 13:07:52;;;;;;;2.40;1.63;;;;;;;21.70;75.28;98509.81;5000187;28;20296;-77
2021/09/30 13:10:19;;;;;;;4.40;1.40;;;;;;;20.61;75.34;98328.41;5031374;28;20576;-77
2021/09/30 13:13:01;;;;;;;1.77;1.53;;;;;;;21.71;75.43;98506.44;5030508;28;20223;-77
2021/09/30 13:15:35;;;;;;;1.90;1.60;;;;;;;21.60;75.76;98479.53;5054495;28;20201;-77
2021/09/30 13:18:03;;;;;;;1.40;1.30;;;;;;;21.70;75.80;98498.72;5048972;28;20358;-76
2021/09/30 13:20:30;;;;;;;1.50;1.40;;;;;;;21.43;75.72;98454.91;5012767;28;20232;-74
2021/09/30 13:22:57;;;;;;;1.40;1.30;;;;;;;21.57;75.73;98475.97;5004309;28;20201;-74
2021/09/30 13:25:23;;;;;;;1.50;1.40;;;;;;;21.63;75.91;98481.34;5002999;28;20232;-75
2021/09/30 13:27:50;;;;;;;1.93;1.40;;;;;;;21.61;76.02;98476.16;5036064;28;20694;-77
2021/09/30 13:30:19;;;;;;;2.37;1.53;;;;;;;21.34;75.86;98428.03;5031491;28;20623;-76
2021/09/30 13:32:45;;;;;;;1.40;1.30;;;;;;;21.19;76.11;98392.44;5023815;28;20263;-79
2021/09/30 13:35:13;;;;;;;1.53;1.40;;;;;;;21.36;76.09;98418.75;5053289;28;20189;-74
2021/09/30 13:37:39;;;;;;;1.90;1.60;;;;;;;21.73;76.24;98480.09;5013170;28;20234;-76
2021/09/30 13:40:07;;;;;;;1.30;1.20;;;;;;;21.69;76.20;98479.94;5051533;28;20190;-75
2021/09/30 13:42:34;;;;;;;1.53;1.40;;;;;;;21.44;76.21;98423.38;5023198;28;20710;-75
2021/09/30 13:45:06;;;;;;;1.57;1.30;;;;;;;21.74;76.52;98477.63;5001797;28;20563;-74
2021/09/30 13:47:32;;;;;;;1.50;1.30;;;;;;;21.74;76.53;98477.63;5048230;28;20702;-76
2021/09/30 13:49:59;;;;;;;2.20;1.60;;;;;;;21.74;76.35;98472.50;5036691;28;20200;-73
2021/09/30 13:52:26;;;;;;;1.90;1.60;;;;;;;21.50;76.41;98433.03;5021627;28;20240;-76
2021/09/30 13:54:52;;;;;;;1.70;1.40;;;;;;;21.47;76.50;98425.22;5021147;28;20302;-75
2021/09/30 13:57:19;;;;;;;3.47;1.40;;;;;;;21.25;76.61;98397.84;5017895;28;20659;-75
2021/09/30 13:59:45;;;;;;;1.53;1.43;;;;;;;21.63;77.01;98448.09;5022791;28;20201;-75
2021/09/30 14:02:33;;;;;;;1.60;1.50;;;;;;;21.68;76.89;98460.25;5021208;28;20201;-73
2021/09/30 14:04:59;;;;;;;3.93;1.50;;;;;;;21.34;76.80;98408.47;5016906;28;20197;-75
2021/09/30 14:07:26;;;;;;;1.60;1.50;;;;;;;21.73;76.83;98464.72;5015333;28;20192;-72
2021/09/30 14:09:53;;;;;;;1.67;1.50;;;;;;;21.73;76.83;98468.13;5045511;28;20272;-73
2021/09/30 14:12:20;;;;;;;2.30;1.53;;;;;;;21.72;76.88;98458.72;5026857;28;20767;-73
2021/09/30 14:14:47;;;;;;;2.20;1.30;;;;;;;21.63;76.89;98445.53;5024232;28;20232;-73
2021/09/30 14:17:13;;;;;;;1.73;1.50;;;;;;;21.70;76.99;98457.78;4996828;28;20190;-72
2021/09/30 14:19:40;;;;;;;1.50;1.40;;;;;;;21.64;77.00;98445.59;5045052;28;20304;-72